createdAt,value
2018-05-15T06:17:10.810Z,12.40
2018-05-15T06:19:38.300Z,12.40
2018-05-15T06:22:06.538Z,12.30
2018-05-15T06:24:34.029Z,12.30
2018-05-15T06:27:02.279Z,12.30
2018-05-15T06:29:29.754Z,12.20
2018-05-15T06:31:58.017Z,12.30
2018-05-15T06:34:25.478Z,12.30
2018-05-15T06:36:52.972Z,12.40
2018-05-15T06:39:20.445Z,12.50
2018-05-15T06:41:47.947Z,12.50
2018-05-15T06:44:15.417Z,12.60
2018-05-15T06:46:42.902Z,12.70
2018-05-15T06:49:10.380Z,12.70
2018-05-15T06:51:37.996Z,12.80
2018-05-15T06:54:06.221Z,12.70
2018-05-15T06:56:33.714Z,12.70
2018-05-15T06:59:01.214Z,12.80
2018-05-15T07:01:28.673Z,12.90
2018-05-15T07:03:56.207Z,13.00
2018-05-15T07:06:24.446Z,13.20
2018-05-15T07:08:51.929Z,13.20
2018-05-15T07:11:20.519Z,13.10
2018-05-15T07:13:48.784Z,13.10
2018-05-15T07:16:16.283Z,13.00
2018-05-15T07:18:43.765Z,13.10
2018-05-15T07:21:11.258Z,13.20
2018-05-15T07:23:38.824Z,13.20
2018-05-15T07:26:06.338Z,13.40
2018-05-15T07:28:33.817Z,13.50
2018-05-15T07:31:01.301Z,13.60
2018-05-15T07:33:28.776Z,13.70
2018-05-15T07:35:57.028Z,13.60
2018-05-15T07:38:24.494Z,13.60
2018-05-15T07:40:53.505Z,13.70
2018-05-15T07:43:21.721Z,13.60
2018-05-15T07:45:49.200Z,13.60
2018-05-15T07:48:16.768Z,13.70
2018-05-15T07:50:44.951Z,13.90
2018-05-15T07:53:12.443Z,13.80
2018-05-15T07:55:41.095Z,14.10
2018-05-15T07:58:08.584Z,14.10
2018-05-15T08:00:36.057Z,14.10
2018-05-15T08:03:03.541Z,14.20
2018-05-15T08:05:31.018Z,14.40
2018-05-15T08:07:58.515Z,14.40
2018-05-15T08:10:26.022Z,14.40
2018-05-15T08:15:22.675Z,14.70
2018-05-15T08:17:50.209Z,14.70
2018-05-15T08:20:17.689Z,14.80
2018-05-15T08:22:45.168Z,14.80
2018-05-15T08:25:13.432Z,15.00
2018-05-15T08:27:40.918Z,14.90
2018-05-15T08:30:09.159Z,15.00
2018-05-15T08:32:36.650Z,14.90
2018-05-15T08:35:04.891Z,14.70
2018-05-15T08:37:32.489Z,14.70
2018-05-15T08:40:00.630Z,15.10
2018-05-15T08:42:28.121Z,15.10
2018-05-15T08:44:56.412Z,15.10
2018-05-15T08:47:25.053Z,15.30
2018-05-15T08:49:52.503Z,15.30
2018-05-15T08:52:19.972Z,15.50
2018-05-15T08:54:47.590Z,15.70
2018-05-15T08:57:15.067Z,15.90
2018-05-15T08:59:42.573Z,16.30
2018-05-15T09:02:10.838Z,17.20
2018-05-15T09:04:38.309Z,17.20
2018-05-15T09:07:05.817Z,17.20
2018-05-15T09:09:33.288Z,17.10
2018-05-15T09:12:00.784Z,17.20
2018-05-15T09:14:29.059Z,16.80
2018-05-15T09:16:57.360Z,16.70
2018-05-15T09:19:24.840Z,16.70
2018-05-15T09:21:52.310Z,16.70
2018-05-15T09:24:19.797Z,16.60
2018-05-15T09:26:47.383Z,16.30
2018-05-15T09:29:14.912Z,16.40
2018-05-15T09:31:42.358Z,16.50
2018-05-15T09:39:07.498Z,17.70
2018-05-15T09:41:34.956Z,17.90
2018-05-15T09:44:02.537Z,18.10
2018-05-15T09:46:30.784Z,18.60
2018-05-15T09:48:58.272Z,18.60
2018-05-15T09:51:26.556Z,18.90
2018-05-15T09:53:54.819Z,19.00
2018-05-15T09:56:22.345Z,19.00
2018-05-15T09:58:49.828Z,18.90
2018-05-15T10:01:17.315Z,19.10
2018-05-15T10:03:44.850Z,19.00
2018-05-15T10:06:13.088Z,19.00
2018-05-15T10:08:40.563Z,19.00
2018-05-15T10:11:08.053Z,18.90
2018-05-15T10:13:36.356Z,19.00
2018-05-15T10:16:03.817Z,19.00
2018-05-15T10:18:31.307Z,18.70
2018-05-15T10:20:58.802Z,18.70
2018-05-15T10:23:27.096Z,18.00
2018-05-15T10:25:54.658Z,18.10
2018-05-15T10:28:22.122Z,18.30
2018-05-15T10:30:49.606Z,18.60
2018-05-15T10:33:17.395Z,18.90
2018-05-15T10:35:44.890Z,19.00
2018-05-15T10:38:13.142Z,19.20
2018-05-15T10:40:40.618Z,19.20
2018-05-15T10:43:08.875Z,19.50
2018-05-15T10:45:36.402Z,19.40
2018-05-15T10:48:03.876Z,19.30
2018-05-15T10:50:31.349Z,19.00
2018-05-15T10:52:58.834Z,19.20
2018-05-15T10:55:26.328Z,19.70
2018-05-15T10:57:53.845Z,20.00
2018-05-15T11:00:22.114Z,19.60
2018-05-15T11:02:50.356Z,19.60
2018-05-15T11:05:17.856Z,19.50
2018-05-15T11:07:46.084Z,19.70
2018-05-15T11:10:13.568Z,19.70
2018-05-15T11:27:46.018Z,21.60
2018-05-15T11:30:13.541Z,21.70
2018-05-15T11:32:41.118Z,21.50
2018-05-15T11:35:08.590Z,21.20
2018-05-15T11:37:36.079Z,20.50
2018-05-15T11:40:04.323Z,19.50
2018-05-15T11:42:31.807Z,19.40
2018-05-15T11:44:59.296Z,19.10
2018-05-15T11:47:26.853Z,18.50
2018-05-15T11:49:54.988Z,18.70
2018-05-15T11:52:22.700Z,18.80
2018-05-15T11:54:49.241Z,19.20
2018-05-15T11:57:16.737Z,19.60
2018-05-15T11:59:44.215Z,19.40
2018-05-15T12:02:11.708Z,19.20
2018-05-15T12:04:39.160Z,18.80
2018-05-15T12:07:06.640Z,18.60
2018-05-15T12:09:34.119Z,18.90
2018-05-15T12:12:01.619Z,19.30
2018-05-15T12:14:29.861Z,20.30
2018-05-15T12:16:57.360Z,20.40
2018-05-15T12:19:25.613Z,19.10
2018-05-15T12:21:53.091Z,19.10
2018-05-15T12:24:21.353Z,19.00
2018-05-15T12:26:48.921Z,19.00
2018-05-15T12:29:17.541Z,21.30
2018-05-15T12:31:45.027Z,21.30
2018-05-15T12:34:12.526Z,22.20
2018-05-15T12:36:40.753Z,21.70
2018-05-15T12:39:08.258Z,21.70
2018-05-15T12:41:36.590Z,20.90
2018-05-15T12:44:04.011Z,20.90
2018-05-15T12:46:31.507Z,20.20
2018-05-15T12:48:59.025Z,20.70
2018-05-15T12:51:26.480Z,21.20
2018-05-15T12:53:53.960Z,21.00
2018-05-15T12:56:21.479Z,19.80
2018-05-15T12:58:49.716Z,19.50
2018-05-15T13:01:17.215Z,19.50
2018-05-15T13:03:44.698Z,20.50
2018-05-15T13:06:12.198Z,21.40
2018-05-15T13:08:39.668Z,21.60
2018-05-15T13:11:07.321Z,22.50
2018-05-15T13:13:35.940Z,21.00
2018-05-15T13:16:04.161Z,19.60
2018-05-15T13:18:31.696Z,19.50
2018-05-15T13:20:59.945Z,19.10
2018-05-15T13:23:28.178Z,20.10
2018-05-15T13:25:55.645Z,20.10
2018-05-15T13:28:23.225Z,21.60
2018-05-15T13:30:50.708Z,22.70
2018-05-15T13:33:18.997Z,24.10
2018-05-15T13:35:46.485Z,24.00
2018-05-15T13:38:13.983Z,23.80
2018-05-15T13:40:42.257Z,21.60
2018-05-15T13:43:09.853Z,21.50
2018-05-15T13:45:37.369Z,21.30
2018-05-15T13:48:04.844Z,21.90
2018-05-15T13:50:33.355Z,21.20
2018-05-15T13:53:00.881Z,21.20
2018-05-15T13:55:28.324Z,20.50
2018-05-15T13:57:55.797Z,21.20
2018-05-15T14:00:24.045Z,23.70
2018-05-15T14:02:51.545Z,23.70
2018-05-15T14:05:19.084Z,23.50
2018-05-15T14:07:46.621Z,22.90
2018-05-15T14:10:14.184Z,23.30
2018-05-15T14:12:41.669Z,22.40
2018-05-15T14:15:09.949Z,19.80
2018-05-15T14:17:38.184Z,19.00
2018-05-15T15:39:41.071Z,15.20
2018-05-15T15:42:08.571Z,15.20
2018-05-15T15:44:36.104Z,15.90
2018-05-15T17:04:04.124Z,14.00
2018-05-15T17:09:00.531Z,13.60
2018-05-15T17:11:28.036Z,13.60
2018-05-15T17:13:55.562Z,13.40
2018-05-15T17:16:23.041Z,13.40
2018-05-15T17:18:50.547Z,13.30
2018-05-15T17:21:18.050Z,13.20
2018-05-15T17:23:45.557Z,13.20
2018-05-15T17:26:13.791Z,13.20
2018-05-15T17:28:41.323Z,13.20
2018-05-15T17:31:08.909Z,13.30
2018-05-15T17:33:37.130Z,13.00
2018-05-15T17:36:05.455Z,13.00
2018-05-15T17:53:27.304Z,12.80
2018-05-15T17:55:55.572Z,12.70
2018-05-15T17:58:23.063Z,12.70
2018-05-15T18:00:51.371Z,12.60
2018-05-15T18:03:18.868Z,12.60
2018-05-15T18:05:46.364Z,12.60
2018-05-15T18:08:15.000Z,12.50
2018-05-15T18:10:42.603Z,12.50
2018-05-15T18:13:10.834Z,12.50
2018-05-15T18:15:38.340Z,12.40
2018-05-15T18:18:06.606Z,12.40
2018-05-15T18:20:34.896Z,12.30
2018-05-15T18:23:03.125Z,12.30
2018-05-15T18:25:30.639Z,12.30
2018-05-15T18:27:58.153Z,12.40
2018-05-15T18:30:25.679Z,12.30
2018-05-15T18:32:53.172Z,12.30
2018-05-15T18:35:21.488Z,12.30
2018-05-15T18:37:50.870Z,12.30
2018-05-15T18:40:18.379Z,12.30
2018-05-15T18:42:45.896Z,12.30
2018-05-15T18:45:14.206Z,12.20
2018-05-15T18:47:41.780Z,12.20
2018-05-15T18:50:09.278Z,12.20
2018-05-15T18:52:36.804Z,12.10
2018-05-15T18:55:04.325Z,12.00
2018-05-15T18:57:31.819Z,12.00
2018-05-15T18:59:59.409Z,11.90
2018-05-15T19:02:26.978Z,11.80
2018-05-15T19:04:54.478Z,11.70
2018-05-15T19:07:21.999Z,11.70
2018-05-15T19:27:13.361Z,11.70
2018-05-15T19:29:41.662Z,11.60
2018-05-15T19:32:14.781Z,11.60
2018-05-15T19:34:49.087Z,11.60
2018-05-15T19:37:16.600Z,11.60
2018-05-15T19:39:44.200Z,11.60
2018-05-15T19:42:11.664Z,11.60
2018-05-15T19:44:39.190Z,11.80
2018-05-15T19:47:06.693Z,11.90
2018-05-15T19:49:34.224Z,12.00
2018-05-15T19:52:01.745Z,12.00
2018-05-15T19:54:30.044Z,12.20
2018-05-15T19:56:57.585Z,12.10
2018-05-15T19:59:25.127Z,12.20
2018-05-15T20:01:53.415Z,12.20
2018-05-15T20:04:20.947Z,12.10
2018-05-15T20:06:48.437Z,12.20
2018-05-15T20:09:15.981Z,12.10
2018-05-15T20:11:44.281Z,12.10
2018-05-15T20:14:11.747Z,12.10
2018-05-15T20:16:39.328Z,12.10
2018-05-15T20:19:07.640Z,12.10
2018-05-15T20:21:35.141Z,12.00
2018-05-15T20:24:02.606Z,12.00
2018-05-15T20:26:30.156Z,12.00
2018-05-15T20:28:57.657Z,12.00
2018-05-15T20:31:25.109Z,12.00
2018-05-15T20:33:53.389Z,12.00
2018-05-15T20:36:20.929Z,11.90
2018-05-15T20:38:48.440Z,11.90
2018-05-15T20:41:16.685Z,11.90
2018-05-15T20:43:44.149Z,11.90
2018-05-15T20:46:13.827Z,11.90
2018-05-15T20:48:41.331Z,11.90
2018-05-15T20:51:08.864Z,11.90
2018-05-15T20:53:36.379Z,11.90
2018-05-15T20:56:03.913Z,11.90
2018-05-15T20:58:32.185Z,11.70
2018-05-15T21:00:59.711Z,11.70
2018-05-15T21:03:27.238Z,11.60
2018-05-15T21:05:54.712Z,11.60
2018-05-15T21:08:22.211Z,11.60
2018-05-15T21:10:49.807Z,11.50
2018-05-15T21:13:17.300Z,11.50
2018-05-15T21:15:44.799Z,11.60
2018-05-15T21:18:13.061Z,11.70
2018-05-15T21:20:40.546Z,11.60
2018-05-15T21:23:08.814Z,11.80
2018-05-15T21:25:37.058Z,11.80
2018-05-15T21:28:04.599Z,11.80
2018-05-15T21:30:32.082Z,11.80
2018-05-15T21:32:59.568Z,11.70
2018-05-15T21:35:27.796Z,11.50
2018-05-15T21:37:55.390Z,11.50
2018-05-15T21:40:22.920Z,11.60
2018-05-15T21:42:50.487Z,11.50
2018-05-15T21:45:17.995Z,11.60
2018-05-15T21:47:45.457Z,11.60
2018-05-15T21:50:13.016Z,11.60
2018-05-15T21:52:40.496Z,11.60
2018-05-15T21:55:07.987Z,11.60
2018-05-15T21:57:35.458Z,11.60
2018-05-15T22:00:03.749Z,11.70
2018-05-15T22:02:31.977Z,11.60
2018-05-15T22:04:59.489Z,11.60
2018-05-15T22:07:26.997Z,11.50
2018-05-15T22:09:54.493Z,11.40
2018-05-15T22:12:34.653Z,11.40
2018-05-15T22:15:14.057Z,11.30
2018-05-15T22:17:53.431Z,11.30
2018-05-15T22:20:33.009Z,11.30
2018-05-15T22:23:00.677Z,11.30
2018-05-15T22:25:28.164Z,11.30
2018-05-15T22:27:56.407Z,11.30
2018-05-15T22:30:23.908Z,11.30
2018-05-15T22:32:51.394Z,11.30
2018-05-15T22:35:19.662Z,11.40
2018-05-15T22:37:47.969Z,11.30
2018-05-15T22:40:15.480Z,11.30
2018-05-15T22:42:42.985Z,11.30
2018-05-15T22:45:10.444Z,11.40
2018-05-15T22:47:37.936Z,11.40
2018-05-15T22:50:05.412Z,11.40
2018-05-15T22:52:33.668Z,11.20
2018-05-15T22:55:01.147Z,11.20
2018-05-15T22:57:29.454Z,11.30
2018-05-15T22:59:56.915Z,11.30
2018-05-15T23:02:24.403Z,11.30
2018-05-15T23:04:51.900Z,11.30
2018-05-15T23:07:19.400Z,11.30
2018-05-15T23:09:46.889Z,11.30
2018-05-15T23:12:14.348Z,11.30
2018-05-15T23:14:41.852Z,11.30
2018-05-15T23:17:09.340Z,11.30
2018-05-15T23:19:36.836Z,11.30
2018-05-15T23:22:04.304Z,11.40
2018-05-15T23:24:32.554Z,11.40
2018-05-15T23:27:00.113Z,11.40
2018-05-15T23:29:27.676Z,11.40
2018-05-15T23:31:55.084Z,11.40
2018-05-15T23:34:22.578Z,11.40
2018-05-15T23:36:50.073Z,11.40
2018-05-15T23:39:18.354Z,11.40
2018-05-15T23:41:46.581Z,11.40
2018-05-15T23:44:14.118Z,11.40
2018-05-15T23:46:41.572Z,11.40
2018-05-15T23:49:09.271Z,11.40
2018-05-15T23:51:36.753Z,11.40
2018-05-15T23:54:05.008Z,11.40
2018-05-15T23:56:32.474Z,11.40
2018-05-15T23:58:59.980Z,11.40
